Parera, Argentina
Current Conditions -  °F | °C
As of 6:00 PM on Tuesday 25 Nov 2014 (Local Time) from SAOC Reporting Station
Clear Clear  
Wind Chill: 79°   Ceiling: Unl
Heat Index: 79°   Visibility: 6mi
Dew Point: 45°   Wind: 18mph
Humidity: 30%   Direction: 50°NE
Pressure: 29.83"   Gusts: NA
Location:  35.13°S, 64.53°W
Report Text: SAOC 252100Z 05016KT CAVOK 26/07 Q1010
Loading
Personal Weather Stations






























Interactive Weather Map New forecast layout! Learn more

10-Day Weather Forecast

Advertisements
Track Severe Weather on mobile